createdAt,value
2023-05-04T00:02:18.361Z,13.03
2023-05-04T00:04:44.943Z,13.01
2023-05-04T00:07:11.702Z,13.05
2023-05-04T00:09:38.541Z,13.00
2023-05-04T00:12:05.822Z,13.08
2023-05-04T00:14:32.348Z,12.99
2023-05-04T00:16:59.050Z,12.95
2023-05-04T00:19:25.833Z,12.92
2023-05-04T00:21:52.368Z,12.92
2023-05-04T00:24:18.927Z,12.88
2023-05-04T00:26:45.715Z,12.92
2023-05-04T00:29:12.368Z,12.90
2023-05-04T00:31:38.923Z,12.88
2023-05-04T00:34:05.671Z,12.87
2023-05-04T00:36:32.247Z,12.79
2023-05-04T00:38:58.706Z,12.81
2023-05-04T00:41:25.270Z,12.80
2023-05-04T00:43:52.062Z,12.76
2023-05-04T00:46:19.501Z,12.76
2023-05-04T00:48:48.920Z,12.80
2023-05-04T00:51:16.793Z,12.78
2023-05-04T00:53:44.104Z,12.76
2023-05-04T00:56:11.250Z,12.75
2023-05-04T00:58:37.985Z,12.71
2023-05-04T01:01:05.463Z,12.70
2023-05-04T01:03:32.565Z,12.70
2023-05-04T01:06:19.548Z,12.75
2023-05-04T01:08:59.318Z,12.73
2023-05-04T01:12:01.494Z,12.72
2023-05-04T01:14:30.217Z,12.73
2023-05-04T01:16:59.730Z,12.69
2023-05-04T01:19:28.131Z,12.68
2023-05-04T01:21:55.044Z,12.73
2023-05-04T01:24:21.977Z,12.67
2023-05-04T01:26:55.091Z,12.66
2023-05-04T01:29:31.645Z,12.66
2023-05-04T01:31:59.976Z,12.70
2023-05-04T01:34:46.598Z,12.59
2023-05-04T01:37:33.125Z,12.61
2023-05-04T01:40:19.839Z,12.58
2023-05-04T01:43:06.373Z,12.52
2023-05-04T01:45:53.277Z,12.46
2023-05-04T01:48:39.810Z,12.39
2023-05-04T01:51:06.229Z,12.38
2023-05-04T01:53:32.901Z,12.34
2023-05-04T01:55:59.483Z,12.40
2023-05-04T01:58:26.032Z,12.39
2023-05-04T02:00:52.847Z,12.34
2023-05-04T02:03:19.346Z,12.24
2023-05-04T02:05:46.754Z,12.33
2023-05-04T02:08:13.302Z,12.18
2023-05-04T02:10:39.973Z,12.21
2023-05-04T02:13:06.743Z,12.14
2023-05-04T02:15:33.834Z,12.08
2023-05-04T02:18:00.363Z,12.00
2023-05-04T02:20:26.947Z,11.97
2023-05-04T02:22:53.436Z,12.00
2023-05-04T02:25:20.376Z,11.96
2023-05-04T02:27:46.896Z,11.94
2023-05-04T02:30:13.943Z,11.97
2023-05-04T02:32:41.160Z,11.92
2023-05-04T02:35:08.488Z,11.83
2023-05-04T02:37:35.285Z,11.77
2023-05-04T02:40:04.292Z,11.71
2023-05-04T02:42:32.059Z,11.68
2023-05-04T02:44:58.754Z,11.76
2023-05-04T02:47:25.320Z,11.73
2023-05-04T02:49:52.125Z,11.72
2023-05-04T02:52:18.668Z,11.71
2023-05-04T02:54:46.406Z,11.69
2023-05-04T02:57:12.855Z,11.60
2023-05-04T02:59:39.584Z,11.66
2023-05-04T03:02:06.210Z,11.71
2023-05-04T03:04:32.789Z,11.63
2023-05-04T03:06:59.347Z,11.61
2023-05-04T03:09:26.229Z,11.62
2023-05-04T03:11:53.255Z,11.56
2023-05-04T03:14:19.942Z,11.51
2023-05-04T03:16:47.181Z,11.50
2023-05-04T03:19:13.965Z,11.49
2023-05-04T03:21:40.529Z,11.44
2023-05-04T03:24:07.159Z,11.47
2023-05-04T03:26:33.829Z,11.46
2023-05-04T03:29:00.377Z,11.49
2023-05-04T03:31:27.160Z,11.49
2023-05-04T03:33:53.895Z,11.47
2023-05-04T03:36:21.588Z,11.44
2023-05-04T03:38:48.589Z,11.49
2023-05-04T03:41:16.259Z,11.50
2023-05-04T03:43:43.191Z,11.45
2023-05-04T03:46:11.436Z,11.44
2023-05-04T03:48:38.236Z,11.52
2023-05-04T03:51:07.575Z,11.54
2023-05-04T03:53:35.715Z,11.52
2023-05-04T03:56:03.310Z,11.48
2023-05-04T03:58:31.094Z,11.47
2023-05-04T04:01:01.644Z,11.52
2023-05-04T04:03:28.174Z,11.49
2023-05-04T04:05:55.668Z,11.49
2023-05-04T04:08:25.368Z,11.53
2023-05-04T04:10:52.145Z,11.55
2023-05-04T04:13:18.890Z,11.49
2023-05-04T04:15:46.640Z,11.52
2023-05-04T04:18:13.586Z,11.52
2023-05-04T04:20:40.244Z,11.55
2023-05-04T04:23:06.716Z,11.54
2023-05-04T04:25:33.586Z,11.55
2023-05-04T04:28:00.198Z,11.57
2023-05-04T04:30:26.637Z,11.63
2023-05-04T04:32:54.711Z,11.63
2023-05-04T04:35:21.535Z,11.62
2023-05-04T04:37:48.210Z,11.61
2023-05-04T04:40:14.818Z,11.66
2023-05-04T04:42:41.895Z,11.67
2023-05-04T04:45:08.850Z,11.70
2023-05-04T04:47:36.115Z,11.65
2023-05-04T04:50:04.740Z,11.67
2023-05-04T04:52:32.482Z,11.71
2023-05-04T04:54:59.840Z,11.70
2023-05-04T04:57:26.513Z,11.72
2023-05-04T04:59:56.100Z,11.72
2023-05-04T05:02:23.129Z,11.75
2023-05-04T05:04:49.740Z,11.75
2023-05-04T05:07:16.571Z,11.76
2023-05-04T05:09:42.946Z,11.75
2023-05-04T05:12:09.466Z,11.74
2023-05-04T05:14:36.050Z,11.76
2023-05-04T05:17:05.779Z,11.80
2023-05-04T05:19:36.874Z,11.79
2023-05-04T05:22:06.386Z,11.84
2023-05-04T05:24:32.953Z,11.89
2023-05-04T05:27:00.270Z,11.93
2023-05-04T05:29:26.738Z,11.92
2023-05-04T05:31:53.285Z,11.92
2023-05-04T05:34:20.025Z,11.93
2023-05-04T05:36:46.667Z,12.02
2023-05-04T05:39:13.403Z,12.00
2023-05-04T05:41:40.061Z,12.02
2023-05-04T05:44:06.952Z,12.07
2023-05-04T05:46:33.892Z,12.09
2023-05-04T05:49:01.323Z,12.16
2023-05-04T05:51:27.753Z,12.12
2023-05-04T05:53:54.312Z,12.08
2023-05-04T05:56:22.212Z,12.14
2023-05-04T05:58:51.175Z,12.16
2023-05-04T06:01:18.647Z,12.14
2023-05-04T06:03:45.375Z,12.19
2023-05-04T06:06:12.722Z,12.25
2023-05-04T06:08:39.201Z,12.33
2023-05-04T06:11:06.184Z,12.33
2023-05-04T06:13:32.994Z,12.27
2023-05-04T06:15:59.696Z,12.27
2023-05-04T06:18:26.284Z,12.33
2023-05-04T06:20:59.505Z,12.41
2023-05-04T06:23:27.626Z,12.52
2023-05-04T06:25:54.204Z,12.63
2023-05-04T06:28:21.046Z,12.68
2023-05-04T06:30:48.364Z,12.72
2023-05-04T06:33:15.172Z,12.78
2023-05-04T06:35:42.035Z,12.91
2023-05-04T06:38:08.880Z,12.93
2023-05-04T06:40:35.343Z,13.05
2023-05-04T06:43:02.142Z,13.20
2023-05-04T06:45:29.472Z,13.30
2023-05-04T06:47:56.049Z,13.30
2023-05-04T06:50:24.059Z,13.49
2023-05-04T06:52:50.819Z,13.57
2023-05-04T06:55:17.840Z,13.66
2023-05-04T06:57:44.368Z,13.78
2023-05-04T07:00:11.400Z,13.89
2023-05-04T07:02:37.935Z,13.98
2023-05-04T07:05:04.744Z,14.22
2023-05-04T07:07:31.569Z,14.36
2023-05-04T07:09:58.128Z,14.38
2023-05-04T07:12:24.695Z,14.51
2023-05-04T07:14:51.454Z,14.54
2023-05-04T07:17:20.314Z,14.60
2023-05-04T07:19:49.757Z,14.64
2023-05-04T07:22:16.528Z,14.77
2023-05-04T07:24:43.010Z,14.91
2023-05-04T07:27:10.633Z,15.14
2023-05-04T07:29:37.151Z,15.27
2023-05-04T07:32:03.754Z,15.36
2023-05-04T07:34:42.303Z,15.51
2023-05-04T07:37:13.370Z,15.71
2023-05-04T07:39:39.805Z,15.93
2023-05-04T07:42:08.167Z,16.04
2023-05-04T07:44:34.826Z,16.18
2023-05-04T07:47:01.930Z,16.42
2023-05-04T07:49:28.812Z,16.48
2023-05-04T07:51:55.521Z,16.63
2023-05-04T07:54:23.030Z,16.72
2023-05-04T07:56:49.992Z,16.84
2023-05-04T07:59:19.881Z,16.93
2023-05-04T08:01:47.478Z,17.22
2023-05-04T08:04:14.294Z,17.35
2023-05-04T08:06:41.544Z,17.57
2023-05-04T08:09:08.406Z,17.63
2023-05-04T08:11:34.958Z,17.72
2023-05-04T08:14:01.816Z,17.68
2023-05-04T08:16:29.369Z,18.13
2023-05-04T08:19:01.173Z,18.17
2023-05-04T08:21:28.395Z,18.17
2023-05-04T08:23:55.388Z,18.03
2023-05-04T08:26:22.019Z,18.13
2023-05-04T08:28:48.896Z,18.30
2023-05-04T08:31:18.507Z,18.25
2023-05-04T08:33:46.310Z,18.73
2023-05-04T08:36:12.897Z,18.99
2023-05-04T08:38:39.604Z,19.14
2023-05-04T08:41:06.942Z,19.03
2023-05-04T08:43:37.376Z,19.29
2023-05-04T08:46:06.117Z,19.52
2023-05-04T08:48:35.950Z,19.74
2023-05-04T08:51:04.521Z,19.88
2023-05-04T08:53:31.627Z,19.83
2023-05-04T08:56:03.992Z,20.19
2023-05-04T08:58:31.545Z,20.04
2023-05-04T09:01:01.693Z,19.85
2023-05-04T09:03:29.644Z,20.27
2023-05-04T09:05:56.998Z,20.22
2023-05-04T09:08:23.921Z,20.28
2023-05-04T09:10:50.580Z,20.77
2023-05-04T09:13:18.029Z,21.07
2023-05-04T09:15:56.820Z,20.94
2023-05-04T09:18:24.068Z,21.24
2023-05-04T09:20:50.523Z,21.30
2023-05-04T09:23:18.248Z,21.29
2023-05-04T09:25:49.843Z,21.69
2023-05-04T09:28:17.358Z,21.50
2023-05-04T09:30:44.933Z,21.70
2023-05-04T09:33:11.577Z,21.73
2023-05-04T09:35:43.004Z,22.01
2023-05-04T09:38:10.097Z,22.47
2023-05-04T09:40:40.649Z,22.59
2023-05-04T09:43:08.309Z,22.46
2023-05-04T09:45:46.172Z,22.70
2023-05-04T09:48:29.069Z,22.96
2023-05-04T09:50:57.580Z,23.34
2023-05-04T09:53:29.416Z,23.24
2023-05-04T09:56:01.495Z,23.25
2023-05-04T09:58:30.913Z,23.59
2023-05-04T10:01:00.881Z,23.40
2023-05-04T10:03:31.289Z,23.55
2023-05-04T10:05:59.825Z,23.97
2023-05-04T10:08:27.690Z,24.12
2023-05-04T10:10:54.820Z,24.16
2023-05-04T10:13:21.620Z,24.07
2023-05-04T10:16:27.559Z,24.40
2023-05-04T10:19:06.282Z,24.56
2023-05-04T10:22:00.086Z,24.37
2023-05-04T10:24:48.987Z,24.13
2023-05-04T10:27:18.668Z,24.17
2023-05-04T10:29:51.448Z,24.66
2023-05-04T10:32:23.211Z,25.05
2023-05-04T10:34:51.218Z,25.24
2023-05-04T10:37:20.092Z,25.03
2023-05-04T10:39:54.044Z,24.88
2023-05-04T10:42:21.571Z,25.04
2023-05-04T10:44:55.450Z,25.30
2023-05-04T10:47:33.114Z,25.04
2023-05-04T10:50:15.947Z,25.44
2023-05-04T10:52:50.379Z,25.38
2023-05-04T10:55:18.056Z,25.64
2023-05-04T10:57:52.682Z,25.79
2023-05-04T11:00:19.661Z,25.89
2023-05-04T11:02:47.632Z,26.36
2023-05-04T11:05:19.504Z,26.46
2023-05-04T11:07:50.729Z,26.11
2023-05-04T11:10:25.621Z,26.75
2023-05-04T11:12:55.374Z,26.71
2023-05-04T11:15:22.503Z,26.40
2023-05-04T11:17:51.521Z,26.25
2023-05-04T11:20:27.774Z,26.28
2023-05-04T11:22:54.819Z,26.96
2023-05-04T11:25:28.671Z,27.45
2023-05-04T11:27:56.298Z,27.17
2023-05-04T11:30:33.987Z,27.24
2023-05-04T11:33:12.042Z,27.71
2023-05-04T11:35:39.918Z,27.98
2023-05-04T11:38:07.735Z,27.82
2023-05-04T11:40:35.211Z,27.41
2023-05-04T11:43:03.586Z,27.63
2023-05-04T11:45:32.543Z,28.14
2023-05-04T11:47:59.767Z,27.60
2023-05-04T11:50:28.392Z,28.11
2023-05-04T11:53:06.538Z,27.22
2023-05-04T11:58:13.093Z,28.47
2023-05-04T12:00:44.281Z,28.46
2023-05-04T12:03:13.075Z,28.69
2023-05-04T12:05:50.654Z,28.86
2023-05-04T12:08:31.551Z,29.10
2023-05-04T12:11:29.123Z,29.09
2023-05-04T12:14:09.519Z,28.96
2023-05-04T12:16:37.845Z,29.04
2023-05-04T12:19:14.033Z,29.49
2023-05-04T12:21:52.439Z,28.72
2023-05-04T12:24:22.493Z,29.65
2023-05-04T12:26:49.342Z,29.81
2023-05-04T12:29:16.182Z,30.48
2023-05-04T12:31:42.960Z,30.15
2023-05-04T12:34:09.589Z,30.31
2023-05-04T12:36:36.013Z,30.64
2023-05-04T12:39:02.963Z,29.85
2023-05-04T12:41:30.239Z,30.25
2023-05-04T12:43:56.688Z,29.85
2023-05-04T12:46:23.363Z,30.18
2023-05-04T12:48:52.183Z,30.80
2023-05-04T12:51:18.703Z,31.16
2023-05-04T12:53:45.466Z,30.81
2023-05-04T12:56:12.152Z,31.08
2023-05-04T12:58:38.724Z,31.28
2023-05-04T13:01:05.363Z,31.64
2023-05-04T13:03:32.420Z,31.68
2023-05-04T13:05:59.166Z,31.79
2023-05-04T13:08:25.946Z,32.04
2023-05-04T13:10:52.686Z,31.77
2023-05-04T13:13:21.319Z,32.33
2023-05-04T13:15:50.359Z,31.48
2023-05-04T13:18:16.866Z,31.28
2023-05-04T13:20:43.933Z,31.67
2023-05-04T13:23:10.511Z,31.97
2023-05-04T13:25:37.337Z,32.24
2023-05-04T13:28:03.865Z,32.60
2023-05-04T13:30:30.615Z,32.85
2023-05-04T13:32:57.238Z,32.55
2023-05-04T13:35:24.258Z,32.74
2023-05-04T13:37:51.606Z,32.61
2023-05-04T13:40:18.302Z,32.72
2023-05-04T13:42:44.982Z,32.65
2023-05-04T13:45:12.129Z,32.76
2023-05-04T13:47:40.272Z,32.65
2023-05-04T13:50:08.057Z,32.25
2023-05-04T13:52:34.940Z,32.41
2023-05-04T13:55:01.793Z,32.84
2023-05-04T13:57:28.332Z,33.40
2023-05-04T14:00:06.654Z,32.77
2023-05-04T14:02:37.297Z,32.70
2023-05-04T14:05:04.549Z,33.18
2023-05-04T14:07:31.252Z,33.59
2023-05-04T14:09:59.377Z,32.67
2023-05-04T14:12:25.881Z,33.03
2023-05-04T14:14:52.736Z,32.94
2023-05-04T14:17:19.141Z,33.27
2023-05-04T14:19:45.918Z,33.61
2023-05-04T14:22:12.400Z,34.01
2023-05-04T14:24:39.097Z,33.80
2023-05-04T14:27:05.675Z,33.46
2023-05-04T14:29:33.598Z,33.86
2023-05-04T14:32:03.161Z,33.64
2023-05-04T14:34:29.650Z,33.20
2023-05-04T14:36:56.640Z,33.88
2023-05-04T14:39:23.253Z,33.98
2023-05-04T14:41:52.182Z,33.87
2023-05-04T14:44:20.327Z,33.62
2023-05-04T14:46:46.781Z,33.93
2023-05-04T14:49:21.585Z,33.81
2023-05-04T14:51:55.223Z,34.37
2023-05-04T14:54:21.818Z,34.21
2023-05-04T14:56:48.245Z,34.21
2023-05-04T14:59:15.060Z,34.12
2023-05-04T15:01:41.722Z,33.33
2023-05-04T15:04:08.257Z,33.68
2023-05-04T15:06:34.996Z,33.75
2023-05-04T15:09:03.570Z,33.19
2023-05-04T15:11:29.995Z,33.72
2023-05-04T15:13:58.825Z,33.65
2023-05-04T15:16:29.996Z,33.72
2023-05-04T15:18:56.581Z,33.33
2023-05-04T15:21:23.128Z,33.45
2023-05-04T15:23:49.556Z,33.98
2023-05-04T15:26:16.084Z,33.80
2023-05-04T15:28:42.536Z,34.03
2023-05-04T15:31:10.272Z,34.00
2023-05-04T15:33:36.828Z,33.91
2023-05-04T15:36:06.818Z,33.57
2023-05-04T15:38:33.542Z,33.26
2023-05-04T15:41:00.005Z,33.69
2023-05-04T15:43:26.460Z,34.05
2023-05-04T15:45:53.205Z,33.95
2023-05-04T15:48:22.799Z,33.31
2023-05-04T15:50:49.370Z,34.20
2023-05-04T15:53:16.208Z,34.49
2023-05-04T15:55:42.677Z,34.27
2023-05-04T15:58:10.566Z,34.24
2023-05-04T16:00:38.192Z,33.79
2023-05-04T16:03:05.947Z,34.14
2023-05-04T16:05:32.689Z,33.75
2023-05-04T16:07:59.121Z,33.31
2023-05-04T16:10:25.555Z,33.85
2023-05-04T16:12:52.065Z,34.30
2023-05-04T16:15:18.683Z,34.53
2023-05-04T16:17:45.406Z,34.77
2023-05-04T16:20:11.969Z,35.33
2023-05-04T16:22:38.840Z,34.96
2023-05-04T16:25:05.858Z,34.80
2023-05-04T16:27:34.427Z,34.65
2023-05-04T16:30:03.167Z,34.66
2023-05-04T16:32:29.765Z,34.53
2023-05-04T16:34:56.540Z,34.71
2023-05-04T16:37:22.949Z,34.57
2023-05-04T16:39:49.402Z,33.53
2023-05-04T16:42:16.494Z,33.53
2023-05-04T16:44:43.023Z,33.62
2023-05-04T16:47:09.692Z,34.16
2023-05-04T16:49:36.185Z,33.76
2023-05-04T16:52:04.763Z,33.51
2023-05-04T16:54:31.456Z,33.04
2023-05-04T16:56:57.990Z,32.83
2023-05-04T16:59:24.915Z,33.27
2023-05-04T17:01:51.503Z,33.42
2023-05-04T17:04:18.204Z,33.16
2023-05-04T17:06:45.259Z,32.99
2023-05-04T17:09:11.737Z,32.71
2023-05-04T17:11:38.224Z,32.19
2023-05-04T17:14:04.870Z,31.95
2023-05-04T17:16:31.463Z,31.47
2023-05-04T17:18:58.068Z,31.01
2023-05-04T17:21:24.622Z,30.62
2023-05-04T17:23:51.093Z,30.16
2023-05-04T17:26:17.676Z,29.90
2023-05-04T17:28:44.254Z,29.20
2023-05-04T17:31:16.427Z,29.16
2023-05-04T17:33:43.121Z,28.79
2023-05-04T17:36:12.016Z,28.90
2023-05-04T17:38:41.492Z,28.47
2023-05-04T17:41:09.800Z,28.17
2023-05-04T17:43:39.372Z,27.99
2023-05-04T17:46:05.999Z,27.84
2023-05-04T17:48:32.579Z,27.62
2023-05-04T17:50:59.569Z,27.49
2023-05-04T17:53:29.422Z,27.26
2023-05-04T17:55:56.148Z,27.37
2023-05-04T17:58:22.762Z,26.87
2023-05-04T18:00:51.325Z,26.78
2023-05-04T18:03:19.631Z,26.47
2023-05-04T18:05:46.954Z,26.47
2023-05-04T18:08:13.958Z,26.23
2023-05-04T18:10:41.236Z,26.23
2023-05-04T18:13:07.862Z,26.25
2023-05-04T18:15:34.372Z,26.14
2023-05-04T18:18:00.988Z,26.01
2023-05-04T18:20:27.593Z,25.86
2023-05-04T18:22:54.250Z,25.58
2023-05-04T18:25:21.168Z,25.42
2023-05-04T18:27:47.609Z,25.31
2023-05-04T18:30:14.359Z,25.00
2023-05-04T18:32:41.061Z,24.82
2023-05-04T18:35:07.942Z,24.64
2023-05-04T18:37:34.617Z,24.42
2023-05-04T18:40:01.189Z,24.17
2023-05-04T18:42:28.474Z,23.89
2023-05-04T18:44:55.158Z,23.83
2023-05-04T18:47:21.636Z,23.76
2023-05-04T18:49:53.236Z,23.57
2023-05-04T18:52:20.366Z,23.48
2023-05-04T18:54:47.108Z,23.31
2023-05-04T18:57:14.156Z,23.03
2023-05-04T18:59:40.875Z,23.02
2023-05-04T19:02:08.148Z,22.77
2023-05-04T19:04:34.940Z,22.67
2023-05-04T19:07:01.839Z,22.50
2023-05-04T19:09:28.568Z,22.35
2023-05-04T19:11:55.179Z,22.32
2023-05-04T19:14:21.862Z,21.95
2023-05-04T19:16:48.413Z,22.00
2023-05-04T19:19:14.973Z,21.95
2023-05-04T19:21:42.865Z,21.61
2023-05-04T19:24:10.531Z,21.67
2023-05-04T19:26:39.927Z,21.59
2023-05-04T19:29:06.575Z,21.48
2023-05-04T19:31:33.283Z,21.34
2023-05-04T19:34:00.150Z,20.92
2023-05-04T19:36:27.392Z,20.84
2023-05-04T19:38:54.094Z,21.08
2023-05-04T19:41:20.856Z,20.93
2023-05-04T19:43:47.488Z,21.01
2023-05-04T19:46:13.964Z,20.90
2023-05-04T19:48:40.506Z,20.79
2023-05-04T19:51:07.182Z,20.60
2023-05-04T19:53:33.941Z,20.62
2023-05-04T19:56:00.615Z,20.46
2023-05-04T19:58:28.403Z,20.39
2023-05-04T20:00:54.863Z,20.33
2023-05-04T20:03:21.496Z,20.13
2023-05-04T20:05:48.173Z,20.17
2023-05-04T20:08:14.703Z,20.02
2023-05-04T20:10:41.108Z,19.95
2023-05-04T20:13:07.756Z,19.95
2023-05-04T20:15:34.229Z,19.81
2023-05-04T20:18:00.780Z,19.92
2023-05-04T20:20:27.489Z,19.93
2023-05-04T20:22:55.866Z,19.87
2023-05-04T20:25:22.801Z,19.80
2023-05-04T20:27:51.972Z,19.87
2023-05-04T20:30:18.593Z,19.91
2023-05-04T20:32:45.395Z,19.76
2023-05-04T20:35:11.912Z,19.70
2023-05-04T20:37:38.461Z,19.76
2023-05-04T20:40:06.518Z,19.68
2023-05-04T20:42:33.224Z,19.43
2023-05-04T20:44:59.797Z,19.53
2023-05-04T20:47:26.597Z,19.36
2023-05-04T20:49:53.258Z,19.36
2023-05-04T20:52:19.721Z,19.36
2023-05-04T20:54:46.256Z,19.41
2023-05-04T20:57:13.165Z,19.42
2023-05-04T20:59:39.698Z,19.44
2023-05-04T21:02:06.136Z,19.24
2023-05-04T21:04:32.580Z,19.40
2023-05-04T21:06:59.062Z,19.50
2023-05-04T21:09:26.520Z,19.47
2023-05-04T21:11:53.097Z,19.29
2023-05-04T21:14:19.698Z,19.31
2023-05-04T21:16:46.311Z,19.39
2023-05-04T21:19:12.721Z,19.47
2023-05-04T21:21:41.328Z,19.36
2023-05-04T21:24:12.663Z,19.48
2023-05-04T21:26:39.292Z,19.22
2023-05-04T21:29:05.959Z,19.33
2023-05-04T21:31:33.249Z,19.21
2023-05-04T21:34:00.023Z,19.27
2023-05-04T21:36:27.382Z,19.27
2023-05-04T21:38:55.252Z,19.27
2023-05-04T21:41:22.466Z,19.26
2023-05-04T21:43:48.996Z,19.23
2023-05-04T21:46:16.164Z,19.18
2023-05-04T21:48:42.723Z,19.12
2023-05-04T21:51:09.342Z,19.02
2023-05-04T21:53:36.372Z,19.11
2023-05-04T21:56:08.337Z,19.09
2023-05-04T21:58:37.081Z,18.99
2023-05-04T22:01:03.748Z,18.98
2023-05-04T22:03:30.371Z,18.99
2023-05-04T22:05:58.036Z,18.96
2023-05-04T22:08:25.263Z,18.92
2023-05-04T22:10:53.013Z,18.95
2023-05-04T22:13:19.828Z,18.84
2023-05-04T22:15:50.409Z,18.68
2023-05-04T22:18:17.618Z,18.54
2023-05-04T22:20:44.314Z,18.45
2023-05-04T22:23:11.026Z,18.59
2023-05-04T22:25:37.926Z,18.59
2023-05-04T22:28:04.917Z,18.45
2023-05-04T22:30:31.740Z,18.58
2023-05-04T22:32:58.423Z,18.46
2023-05-04T22:35:25.310Z,18.36
2023-05-04T22:37:51.924Z,18.35
2023-05-04T22:40:19.007Z,18.39
2023-05-04T22:42:45.663Z,18.30
2023-05-04T22:45:14.215Z,18.27
2023-05-04T22:47:41.814Z,18.27
2023-05-04T22:50:09.531Z,18.28
2023-05-04T22:52:37.224Z,18.28
2023-05-04T22:55:04.546Z,18.21
2023-05-04T22:57:31.746Z,18.24
2023-05-04T22:59:58.330Z,18.15
2023-05-04T23:02:25.384Z,18.04
2023-05-04T23:04:52.988Z,18.03
2023-05-04T23:07:19.661Z,18.04
2023-05-04T23:09:46.815Z,18.00
2023-05-04T23:12:14.242Z,17.85
2023-05-04T23:14:41.497Z,17.84
2023-05-04T23:17:08.426Z,17.83
2023-05-04T23:19:35.059Z,17.66
2023-05-04T23:22:01.831Z,17.59
2023-05-04T23:24:28.256Z,17.51
2023-05-04T23:26:54.780Z,17.46
2023-05-04T23:29:21.368Z,17.47
2023-05-04T23:31:47.976Z,17.34
2023-05-04T23:34:14.676Z,17.37
2023-05-04T23:36:41.303Z,17.34
2023-05-04T23:39:07.900Z,17.31
2023-05-04T23:41:35.070Z,17.29
2023-05-04T23:44:02.086Z,17.27
2023-05-04T23:46:28.765Z,17.25
2023-05-04T23:48:55.381Z,17.22
2023-05-04T23:51:22.049Z,17.29
2023-05-04T23:53:48.771Z,17.23
2023-05-04T23:56:15.678Z,17.26
2023-05-04T23:58:42.276Z,17.21
